Time;durP1;ratioP1;P1;durP2;ratioP2;P2;SDS_P1;SDS_P2;PMS_P1;PMS_P2;Temp;Humidity;BMP_temperature;BMP_pressure;BME280_temperature;BME280_humidity;BME280_pressure;Samples;Min_cycle;Max_cycle;Signal;HPM_P1;HPM_P2
2022/11/21 00:01:18;;;;;;;28.00;18.90;;;;;;;4.10;100.00;100406.75;5005651;28;20424;-52
2022/11/21 00:03:46;;;;;;;25.05;18.13;;;;;;;4.09;100.00;100415.91;5003740;28;20065;-56
2022/11/21 00:06:13;;;;;;;28.05;19.63;;;;;;;4.12;100.00;100420.81;5011199;28;20420;-54
2022/11/21 00:08:41;;;;;;;26.35;18.35;;;;;;;4.16;100.00;100418.44;5007817;28;20030;-54
2022/11/21 00:11:09;;;;;;;29.13;19.48;;;;;;;4.08;100.00;100433.09;5007229;28;20445;-52
2022/11/21 00:13:37;;;;;;;30.33;20.27;;;;;;;4.08;100.00;100430.41;5009175;28;20484;-52
2022/11/21 00:16:07;;;;;;;28.00;20.00;;;;;;;3.97;100.00;100436.63;5003858;28;20042;-52
2022/11/21 00:18:35;;;;;;;26.92;19.50;;;;;;;3.94;100.00;100445.97;4998526;28;20050;-52
2022/11/21 00:21:14;;;;;;;31.33;20.70;;;;;;;4.04;100.00;100450.78;4991797;28;20054;-52
2022/11/21 00:23:43;;;;;;;30.48;19.92;;;;;;;4.12;100.00;100447.75;5007343;28;20048;-48
2022/11/21 00:26:12;;;;;;;27.95;19.42;;;;;;;4.17;100.00;100445.19;4978384;28;20055;-50
2022/11/21 00:28:40;;;;;;;26.65;19.33;;;;;;;4.23;100.00;100448.81;4988797;28;20046;-50
2022/11/21 00:31:08;;;;;;;28.02;19.63;;;;;;;4.23;100.00;100460.44;4994961;28;20049;-49
2022/11/21 00:33:35;;;;;;;30.40;19.30;;;;;;;4.21;100.00;100450.91;5004635;28;20101;-51
2022/11/21 00:36:09;;;;;;;28.90;19.98;;;;;;;4.20;100.00;100450.09;5012187;28;20400;-52
2022/11/21 00:38:37;;;;;;;31.48;19.55;;;;;;;4.14;100.00;100451.06;4998089;28;20042;-52
2022/11/21 00:41:05;;;;;;;26.75;18.38;;;;;;;4.09;100.00;100447.41;5000802;28;20044;-51
2022/11/21 00:43:33;;;;;;;28.58;19.27;;;;;;;4.07;100.00;100458.44;4980730;28;20047;-50
2022/11/21 00:46:01;;;;;;;27.92;19.45;;;;;;;4.08;100.00;100446.59;5011068;28;20038;-49
2022/11/21 00:48:31;;;;;;;26.35;19.33;;;;;;;4.10;100.00;100455.25;4996267;28;20046;-50
2022/11/21 00:50:59;;;;;;;26.27;19.15;;;;;;;4.16;100.00;100448.09;4963500;28;20110;-49
2022/11/21 00:53:28;;;;;;;27.30;19.58;;;;;;;4.19;100.00;100437.69;4963790;28;20039;-51
2022/11/21 00:55:56;;;;;;;27.48;18.75;;;;;;;4.19;100.00;100429.59;4976864;28;20039;-51
2022/11/21 00:58:24;;;;;;;27.63;19.20;;;;;;;4.23;100.00;100421.84;4981339;28;20490;-50
2022/11/21 01:01:00;;;;;;;28.75;19.73;;;;;;;4.30;100.00;100427.13;4978668;28;20046;-50
2022/11/21 01:03:28;;;;;;;29.50;19.60;;;;;;;4.33;100.00;100432.03;4978576;28;20042;-52
2022/11/21 01:06:01;;;;;;;28.42;19.77;;;;;;;4.27;100.00;100420.31;4984596;28;20043;-53
2022/11/21 01:08:28;;;;;;;28.10;19.73;;;;;;;4.17;100.00;100429.00;4987721;28;20517;-53
2022/11/21 01:10:59;;;;;;;26.88;19.00;;;;;;;4.13;100.00;100435.09;4980629;28;20438;-52
2022/11/21 01:13:27;;;;;;;30.35;20.05;;;;;;;4.12;100.00;100438.88;4957741;28;20038;-51
2022/11/21 01:15:55;;;;;;;27.60;20.40;;;;;;;4.16;100.00;100440.84;4978701;28;20042;-50
2022/11/21 01:18:22;;;;;;;26.92;18.90;;;;;;;4.14;100.00;100440.28;4976031;28;20053;-54
2022/11/21 01:20:50;;;;;;;29.00;19.70;;;;;;;4.12;100.00;100439.69;4978755;28;20101;-54
2022/11/21 01:23:17;;;;;;;27.30;18.98;;;;;;;4.09;100.00;100437.47;4975292;28;20046;-53
2022/11/21 01:25:45;;;;;;;27.90;19.67;;;;;;;4.05;100.00;100447.06;4984780;28;20101;-54
2022/11/21 01:28:13;;;;;;;26.42;18.83;;;;;;;4.06;100.00;100443.31;4980471;28;20050;-55
2022/11/21 01:30:40;;;;;;;24.27;18.70;;;;;;;4.08;100.00;100441.19;4981638;28;20054;-55
2022/11/21 01:33:08;;;;;;;25.02;17.75;;;;;;;4.08;100.00;100443.88;4995499;28;20042;-53
2022/11/21 01:35:35;;;;;;;27.05;18.73;;;;;;;4.12;100.00;100444.25;4977681;28;20042;-55
2022/11/21 01:38:03;;;;;;;26.38;19.45;;;;;;;4.17;100.00;100439.78;4977784;28;20049;-53
2022/11/21 01:40:37;;;;;;;26.63;19.60;;;;;;;4.13;100.00;100440.50;4976192;28;20058;-51
2022/11/21 01:43:14;;;;;;;26.23;18.67;;;;;;;4.12;100.00;100446.94;4968104;28;20129;-53
2022/11/21 01:45:58;;;;;;;26.55;18.98;;;;;;;4.16;100.00;100442.72;4978689;28;20117;-53
2022/11/21 01:48:28;;;;;;;25.88;18.85;;;;;;;4.15;100.00;100436.50;4976947;28;20468;-51
2022/11/21 01:51:00;;;;;;;29.10;19.63;;;;;;;4.15;100.00;100430.28;4981844;28;20042;-53
2022/11/21 01:53:27;;;;;;;29.60;20.65;;;;;;;4.14;100.00;100434.88;4981268;28;20042;-49
2022/11/21 01:55:55;;;;;;;27.38;18.95;;;;;;;4.17;100.00;100438.97;4978215;28;20046;-51
2022/11/21 01:58:23;;;;;;;27.00;18.98;;;;;;;4.22;100.00;100436.41;4994102;28;20064;-54
2022/11/21 02:00:50;;;;;;;25.15;19.02;;;;;;;4.26;100.00;100427.59;4979857;28;20050;-52
2022/11/21 02:03:21;;;;;;;26.85;18.63;;;;;;;4.27;100.00;100437.31;4983056;28;20104;-50
2022/11/21 02:05:49;;;;;;;27.67;19.73;;;;;;;4.26;100.00;100438.38;4975035;28;20050;-53
2022/11/21 02:08:20;;;;;;;28.00;19.17;;;;;;;4.29;100.00;100430.88;4969627;28;20081;-53
2022/11/21 02:10:58;;;;;;;29.27;20.20;;;;;;;4.29;100.00;100431.69;4976647;28;20073;-51
2022/11/21 02:13:26;;;;;;;30.83;20.65;;;;;;;4.22;100.00;100431.81;4966486;28;20090;-53
2022/11/21 02:15:54;;;;;;;29.00;21.05;;;;;;;4.13;100.00;100427.81;4989003;28;20042;-51
2022/11/21 02:18:22;;;;;;;26.63;20.17;;;;;;;4.02;100.00;100432.19;4967938;28;20038;-52
2022/11/21 02:20:55;;;;;;;27.33;19.15;;;;;;;3.93;100.00;100443.53;4974677;28;20054;-50
2022/11/21 02:23:44;;;;;;;28.58;20.65;;;;;;;3.82;100.00;100453.25;4984613;28;20047;-52
2022/11/21 02:26:11;;;;;;;27.77;20.02;;;;;;;3.73;100.00;100451.94;4972618;28;20039;-51
2022/11/21 02:28:39;;;;;;;28.50;20.65;;;;;;;3.76;100.00;100449.63;4964804;28;20034;-52
2022/11/21 02:31:06;;;;;;;28.58;20.95;;;;;;;3.78;100.00;100447.50;4972912;28;20050;-53
2022/11/21 02:33:36;;;;;;;28.77;20.33;;;;;;;3.77;100.00;100453.13;4977202;28;20035;-53
2022/11/21 02:36:04;;;;;;;30.20;20.77;;;;;;;3.83;100.00;100460.28;4989137;28;20133;-49
2022/11/21 02:38:37;;;;;;;30.17;21.48;;;;;;;3.92;100.00;100467.00;4970196;28;20038;-50
2022/11/21 02:41:25;;;;;;;32.85;21.42;;;;;;;3.99;100.00;100467.69;5002929;28;20039;-51
2022/11/21 02:44:01;;;;;;;31.40;22.08;;;;;;;4.03;100.00;100470.72;4975712;28;20128;-50
2022/11/21 02:46:29;;;;;;;30.30;21.85;;;;;;;4.05;100.00;100463.25;4980418;28;20049;-51
2022/11/21 02:48:57;;;;;;;29.92;20.13;;;;;;;4.07;100.00;100474.63;4985025;28;20038;-50
2022/11/21 02:51:24;;;;;;;29.23;21.58;;;;;;;4.11;100.00;100473.06;5006131;28;20045;-53
2022/11/21 02:53:52;;;;;;;30.35;21.05;;;;;;;4.14;100.00;100478.00;4995499;28;20444;-51
2022/11/21 02:56:19;;;;;;;28.85;20.45;;;;;;;4.12;100.00;100463.94;5012172;28;20049;-48
2022/11/21 02:58:47;;;;;;;30.30;20.52;;;;;;;4.13;100.00;100465.56;5006528;28;20068;-49
2022/11/21 03:01:15;;;;;;;26.77;19.65;;;;;;;4.12;100.00;100466.66;5007341;28;20038;-49
2022/11/21 03:03:43;;;;;;;27.15;18.80;;;;;;;3.97;100.00;100472.50;4976260;28;20057;-52
2022/11/21 03:06:10;;;;;;;24.92;18.45;;;;;;;3.86;100.00;100465.22;4963758;28;20070;-51
2022/11/21 03:08:38;;;;;;;28.92;20.63;;;;;;;3.82;100.00;100461.31;4970723;28;20039;-52
2022/11/21 03:11:05;;;;;;;27.10;19.95;;;;;;;3.86;100.00;100465.22;4984213;28;20038;-53
2022/11/21 03:13:33;;;;;;;25.90;18.67;;;;;;;3.84;100.00;100467.31;4970531;28;20058;-52
2022/11/21 03:16:00;;;;;;;23.73;17.80;;;;;;;3.89;100.00;100458.53;4981234;28;20050;-53
2022/11/21 03:18:28;;;;;;;26.77;19.77;;;;;;;3.96;100.00;100446.56;4991936;28;20067;-52
2022/11/21 03:20:57;;;;;;;29.13;20.05;;;;;;;3.99;100.00;100442.59;4980031;28;20449;-52
2022/11/21 03:23:24;;;;;;;27.17;19.73;;;;;;;4.00;100.00;100436.97;4986038;28;20044;-55
2022/11/21 03:25:52;;;;;;;25.48;19.25;;;;;;;4.02;100.00;100429.47;4972020;28;20038;-53
2022/11/21 03:28:20;;;;;;;26.40;19.65;;;;;;;4.08;100.00;100427.72;4983963;28;20034;-53
2022/11/21 03:30:47;;;;;;;29.38;20.95;;;;;;;4.14;100.00;100420.59;4979785;28;20524;-52
2022/11/21 03:33:15;;;;;;;28.00;19.40;;;;;;;4.14;100.00;100424.09;4980865;28;20485;-53
2022/11/21 03:35:43;;;;;;;29.65;20.45;;;;;;;4.13;100.00;100427.81;4978367;28;20098;-54
2022/11/21 03:38:10;;;;;;;27.17;19.67;;;;;;;4.11;100.00;100429.13;4979923;28;20046;-52
2022/11/21 03:40:38;;;;;;;27.95;19.77;;;;;;;4.09;100.00;100425.84;4953560;28;20039;-52
2022/11/21 03:43:06;;;;;;;27.30;18.73;;;;;;;4.07;100.00;100428.78;4987410;28;20094;-51
2022/11/21 03:45:34;;;;;;;25.67;19.27;;;;;;;4.06;100.00;100424.44;4964193;28;20046;-52
2022/11/21 03:48:02;;;;;;;26.67;19.85;;;;;;;4.07;100.00;100434.19;4978433;28;20047;-53
2022/11/21 03:50:29;;;;;;;28.95;20.48;;;;;;;4.05;100.00;100437.09;4974055;28;20502;-52
2022/11/21 03:52:57;;;;;;;27.08;19.95;;;;;;;4.05;100.00;100428.19;4982884;28;20085;-51
2022/11/21 03:55:24;;;;;;;29.10;21.30;;;;;;;4.07;100.00;100423.38;4966866;28;20098;-52
2022/11/21 03:57:52;;;;;;;28.00;20.42;;;;;;;4.05;100.00;100436.28;4984655;28;20050;-50
2022/11/21 04:00:20;;;;;;;28.48;20.55;;;;;;;4.05;100.00;100441.66;4973949;28;20034;-52
2022/11/21 04:02:47;;;;;;;30.73;21.20;;;;;;;4.07;100.00;100431.47;4980345;28;20481;-51
2022/11/21 04:05:15;;;;;;;28.88;21.10;;;;;;;4.03;100.00;100449.97;4966195;28;20401;-53
2022/11/21 04:07:44;;;;;;;29.55;20.73;;;;;;;3.93;100.00;100438.16;4965030;28;20058;-49
2022/11/21 04:10:12;;;;;;;32.05;21.70;;;;;;;3.88;100.00;100438.03;4978172;28;20453;-52
2022/11/21 04:12:40;;;;;;;28.75;20.52;;;;;;;3.93;100.00;100432.75;4975956;28;20047;-51
2022/11/21 04:15:08;;;;;;;31.67;22.10;;;;;;;4.00;100.00;100441.56;4989106;28;20507;-52
2022/11/21 04:17:40;;;;;;;33.28;22.25;;;;;;;4.03;100.00;100446.47;4992492;28;20042;-52
2022/11/21 04:20:08;;;;;;;30.75;21.40;;;;;;;4.05;100.00;100438.97;4980278;28;20058;-52
2022/11/21 04:22:36;;;;;;;29.15;21.13;;;;;;;4.06;100.00;100454.09;4974028;28;20474;-54
2022/11/21 04:25:04;;;;;;;33.17;22.20;;;;;;;4.09;100.00;100453.63;4979554;28;20047;-52
2022/11/21 04:27:31;;;;;;;32.17;23.17;;;;;;;4.13;100.00;100451.28;4974125;28;20038;-50
2022/11/21 04:29:59;;;;;;;29.98;21.40;;;;;;;4.15;100.00;100439.19;4987095;28;20043;-53
2022/11/21 04:32:27;;;;;;;29.00;20.70;;;;;;;4.16;100.00;100432.78;4977325;28;20039;-51
2022/11/21 04:34:54;;;;;;;31.23;21.65;;;;;;;4.18;100.00;100425.25;4980577;28;20035;-52
2022/11/21 04:37:22;;;;;;;31.02;20.95;;;;;;;4.13;100.00;100425.13;4972352;28;20045;-50
2022/11/21 04:39:49;;;;;;;27.38;20.70;;;;;;;4.09;100.00;100426.69;4977651;28;20093;-54
2022/11/21 04:42:17;;;;;;;28.55;20.50;;;;;;;4.09;100.00;100426.69;4977337;28;20105;-53
2022/11/21 04:44:44;;;;;;;30.95;21.83;;;;;;;4.12;100.00;100426.19;4980941;28;20046;-52
2022/11/21 04:47:12;;;;;;;27.90;19.95;;;;;;;4.12;100.00;100415.41;4992233;28;20038;-51
2022/11/21 04:49:40;;;;;;;29.65;20.70;;;;;;;4.11;100.00;100419.16;4980691;28;20039;-50
2022/11/21 04:52:07;;;;;;;31.20;20.73;;;;;;;4.10;100.00;100417.53;4986501;28;20055;-52
2022/11/21 04:54:35;;;;;;;28.35;19.65;;;;;;;4.11;100.00;100419.16;4977364;28;20054;-51
2022/11/21 04:57:03;;;;;;;28.13;20.25;;;;;;;4.12;100.00;100409.22;4989416;28;20047;-51
2022/11/21 04:59:30;;;;;;;27.05;19.58;;;;;;;4.12;100.00;100404.63;4988871;28;20042;-49
2022/11/21 05:01:58;;;;;;;27.33;19.38;;;;;;;4.14;100.00;100407.91;4967029;28;20066;-52
2022/11/21 05:04:25;;;;;;;26.48;18.85;;;;;;;4.19;100.00;100394.53;4986760;28;20402;-51
2022/11/21 05:06:53;;;;;;;28.40;19.55;;;;;;;4.21;100.00;100391.59;4998665;28;20039;-51
2022/11/21 05:09:21;;;;;;;27.48;18.67;;;;;;;4.23;100.00;100395.72;4999750;28;20042;-53
2022/11/21 05:14:34;;;;;;;26.58;19.17;;;;;;;4.25;100.00;100385.50;5011168;28;20113;-52
2022/11/21 05:17:02;;;;;;;24.70;18.35;;;;;;;4.25;100.00;100380.09;4978417;28;20085;-51
2022/11/21 05:19:30;;;;;;;26.02;19.23;;;;;;;4.27;100.00;100375.28;5001507;28;20042;-49
2022/11/21 05:21:57;;;;;;;30.17;21.88;;;;;;;4.24;100.00;100364.19;5015827;28;20447;-54
2022/11/21 05:24:25;;;;;;;30.63;22.08;;;;;;;4.16;100.00;100362.66;4975443;28;20042;-56
2022/11/21 05:26:53;;;;;;;30.23;21.95;;;;;;;4.11;100.00;100364.41;5001868;28;20054;-56
2022/11/21 05:29:21;;;;;;;29.75;22.27;;;;;;;4.07;100.00;100369.47;5003486;28;20068;-55
2022/11/21 05:31:54;;;;;;;28.20;21.33;;;;;;;4.09;100.00;100361.13;5019146;28;20056;-52
2022/11/21 05:34:22;;;;;;;28.90;20.75;;;;;;;4.09;100.00;100367.38;5015612;28;20096;-53
2022/11/21 05:36:55;;;;;;;27.45;19.98;;;;;;;4.08;100.00;100365.72;5005959;28;20039;-53
2022/11/21 05:39:24;;;;;;;26.75;20.23;;;;;;;4.12;100.00;100366.88;4965277;28;20042;-54
2022/11/21 05:41:52;;;;;;;25.95;19.08;;;;;;;4.17;100.00;100369.69;4999060;28;20100;-52
2022/11/21 05:44:24;;;;;;;29.40;21.55;;;;;;;4.23;100.00;100359.81;5008469;28;20045;-53
2022/11/21 05:46:52;;;;;;;26.73;19.83;;;;;;;4.27;100.00;100363.69;4995313;28;20050;-54
2022/11/21 05:49:20;;;;;;;29.92;20.52;;;;;;;4.29;100.00;100361.59;5008747;28;20053;-53
2022/11/21 05:51:48;;;;;;;28.02;20.92;;;;;;;4.30;100.00;100355.13;4994304;28;20097;-52
2022/11/21 05:54:15;;;;;;;29.23;20.33;;;;;;;4.33;100.00;100356.50;4977444;28;20037;-51
2022/11/21 05:56:43;;;;;;;28.35;19.75;;;;;;;4.32;100.00;100360.28;5006214;28;20121;-50
2022/11/21 05:59:11;;;;;;;27.65;18.15;;;;;;;4.32;100.00;100357.59;4999946;28;20052;-52
2022/11/21 06:04:25;;;;;;;30.42;20.38;;;;;;;4.32;100.00;100349.50;4975339;28;20054;-53
2022/11/21 06:06:53;;;;;;;26.52;19.15;;;;;;;4.31;100.00;100356.78;4986229;28;20071;-52
2022/11/21 06:09:21;;;;;;;26.02;18.70;;;;;;;4.30;100.00;100346.22;4964850;28;20441;-52
2022/11/21 06:11:48;;;;;;;27.75;20.45;;;;;;;4.31;100.00;100342.47;4967277;28;20041;-51
2022/11/21 06:14:16;;;;;;;27.42;19.25;;;;;;;4.30;100.00;100338.94;4975215;28;20051;-50
2022/11/21 06:16:44;;;;;;;28.30;20.45;;;;;;;4.25;100.00;100336.13;4978484;28;20043;-50
2022/11/21 06:19:11;;;;;;;30.38;22.00;;;;;;;4.24;100.00;100339.91;4979060;28;20093;-51
2022/11/21 06:21:39;;;;;;;30.55;21.13;;;;;;;4.23;100.00;100335.56;4993913;28;20054;-51
2022/11/21 06:24:07;;;;;;;30.58;22.30;;;;;;;4.23;100.00;100341.78;4989409;28;20042;-49
2022/11/21 06:26:35;;;;;;;29.67;21.33;;;;;;;4.21;100.00;100346.59;4960699;28;20053;-54
2022/11/21 06:29:03;;;;;;;31.15;22.25;;;;;;;4.22;100.00;100337.44;4284051;28;10000159;-51
2022/11/21 06:31:31;;;;;;;36.30;21.67;;;;;;;4.23;100.00;100336.41;4962343;28;20041;-51
2022/11/21 06:33:59;;;;;;;27.02;19.70;;;;;;;4.23;100.00;100330.16;4976194;28;20057;-49
2022/11/21 06:36:26;;;;;;;28.02;18.90;;;;;;;4.26;100.00;100332.41;4980350;28;20039;-49
2022/11/21 06:38:55;;;;;;;28.70;20.67;;;;;;;4.30;100.00;100335.44;4971587;28;20054;-49
2022/11/21 06:41:24;;;;;;;27.85;19.65;;;;;;;4.31;100.00;100329.81;4940599;28;20038;-50
2022/11/21 06:43:52;;;;;;;27.98;19.90;;;;;;;4.30;100.00;100324.63;4976767;28;20055;-53
2022/11/21 06:46:20;;;;;;;27.95;19.80;;;;;;;4.32;100.00;100323.34;4980389;28;20516;-52
2022/11/21 06:48:47;;;;;;;26.58;19.08;;;;;;;4.36;100.00;100324.50;4964716;28;20406;-51
2022/11/21 06:51:19;;;;;;;28.02;20.48;;;;;;;4.40;100.00;100308.66;4973876;28;20405;-51
2022/11/21 06:53:47;;;;;;;30.45;21.23;;;;;;;4.41;100.00;100310.31;4947627;28;20038;-52
2022/11/21 06:56:15;;;;;;;30.45;21.27;;;;;;;4.40;100.00;100308.66;4970740;28;20116;-52
2022/11/21 06:58:43;;;;;;;28.23;20.45;;;;;;;4.38;100.00;100311.59;4981584;28;20070;-52
2022/11/21 07:01:10;;;;;;;29.55;20.40;;;;;;;4.41;100.00;100313.00;4978956;28;20050;-53
2022/11/21 07:03:39;;;;;;;30.60;20.83;;;;;;;4.43;100.00;100310.88;4969008;28;20049;-50
2022/11/21 07:06:06;;;;;;;29.50;20.73;;;;;;;4.45;100.00;100317.69;4986106;28;20050;-52
2022/11/21 07:08:35;;;;;;;31.88;21.15;;;;;;;4.45;100.00;100306.09;4971122;28;20121;-53
2022/11/21 07:11:05;;;;;;;33.75;20.80;;;;;;;4.47;100.00;100303.94;4969532;28;20582;-51
2022/11/21 07:13:53;;;;;;;31.30;19.23;;;;;;;4.49;100.00;100308.03;4971663;28;20061;-53
2022/11/21 07:16:20;;;;;;;31.63;19.13;;;;;;;4.53;100.00;100307.56;4980349;28;20047;-49
2022/11/21 07:18:48;;;;;;;28.85;20.05;;;;;;;4.54;100.00;100315.41;4970915;28;20470;-49
2022/11/21 07:21:17;;;;;;;31.05;19.95;;;;;;;4.55;100.00;100306.28;4973280;28;20077;-49
2022/11/21 07:23:44;;;;;;;27.35;18.98;;;;;;;4.57;100.00;100308.72;4972333;28;20046;-53
2022/11/21 07:26:12;;;;;;;30.90;20.33;;;;;;;4.57;100.00;100301.47;4952607;28;20050;-50
2022/11/21 07:28:39;;;;;;;29.45;19.20;;;;;;;4.58;100.00;100289.59;4972827;28;20046;-52
2022/11/21 07:31:09;;;;;;;28.75;19.67;;;;;;;4.61;100.00;100277.50;4971539;28;20055;-51
2022/11/21 07:33:42;;;;;;;29.65;20.98;;;;;;;4.59;100.00;100275.03;4972485;28;20059;-50
2022/11/21 07:36:10;;;;;;;30.80;19.70;;;;;;;4.60;100.00;100284.78;4976695;28;20046;-53
2022/11/21 07:38:40;;;;;;;30.35;20.20;;;;;;;4.61;100.00;100278.31;4972838;28;20043;-51
2022/11/21 07:41:08;;;;;;;29.85;19.73;;;;;;;4.62;100.00;100277.25;4988014;28;20089;-54
2022/11/21 07:43:36;;;;;;;31.50;19.55;;;;;;;4.62;100.00;100285.34;4992822;28;20046;-54
2022/11/21 07:46:03;;;;;;;32.13;19.67;;;;;;;4.62;100.00;100285.34;4973139;28;20053;-55
2022/11/21 07:48:31;;;;;;;31.73;19.70;;;;;;;4.63;100.00;100302.38;4980180;28;20353;-54
2022/11/21 07:51:01;;;;;;;30.50;20.17;;;;;;;4.65;100.00;100294.84;4984057;28;20043;-54
2022/11/21 07:53:29;;;;;;;27.52;18.98;;;;;;;4.67;100.00;100288.16;4978875;28;20093;-53
2022/11/21 07:55:58;;;;;;;25.60;17.95;;;;;;;4.69;100.00;100290.63;4974344;28;20191;-55
2022/11/21 07:58:26;;;;;;;33.63;20.45;;;;;;;4.69;100.00;100296.81;4961161;28;20058;-53
2022/11/21 08:00:54;;;;;;;31.08;18.65;;;;;;;4.69;100.00;100283.34;4992456;28;20054;-56
2022/11/21 08:03:24;;;;;;;27.42;18.83;;;;;;;4.70;100.00;100287.66;4996059;28;20133;-54
2022/11/21 08:05:51;;;;;;;33.28;20.45;;;;;;;4.70;100.00;100278.75;4982982;28;20070;-50
2022/11/21 08:08:19;;;;;;;30.77;18.52;;;;;;;4.72;100.00;100278.50;5006027;28;20046;-51
2022/11/21 08:10:46;;;;;;;29.35;18.38;;;;;;;4.75;100.00;100278.03;5013095;28;20041;-48
2022/11/21 08:13:14;;;;;;;27.35;17.45;;;;;;;4.77;100.00;100270.50;5004414;28;20051;-49
2022/11/21 08:15:42;;;;;;;24.30;14.98;;;;;;;4.78;100.00;100266.72;4990545;28;20071;-48
2022/11/21 08:18:15;;;;;;;22.85;14.55;;;;;;;4.81;100.00;100261.69;4988527;28;20094;-48
2022/11/21 08:20:42;;;;;;;21.88;13.75;;;;;;;4.83;100.00;100264.13;4978824;28;20145;-54
2022/11/21 08:23:10;;;;;;;19.65;12.90;;;;;;;4.86;100.00;100263.66;4994184;28;20053;-51
2022/11/21 08:25:38;;;;;;;17.73;11.40;;;;;;;4.88;100.00;100275.00;4996989;28;20051;-52
2022/11/21 08:28:08;;;;;;;18.98;9.90;;;;;;;4.91;100.00;100263.72;4996930;28;20497;-51
2022/11/21 08:30:36;;;;;;;17.45;11.15;;;;;;;4.94;100.00;100263.25;4996569;28;20030;-49
2022/11/21 08:33:05;;;;;;;24.77;10.40;;;;;;;5.05;100.00;100250.72;4969748;28;20042;-49
2022/11/21 08:35:35;;;;;;;23.50;10.43;;;;;;;5.12;100.00;100246.81;4995794;28;20046;-49
2022/11/21 08:38:03;;;;;;;15.85;9.50;;;;;;;5.11;100.00;100249.75;4991528;28;20042;-52
2022/11/21 08:40:31;;;;;;;17.08;9.82;;;;;;;5.08;100.00;100234.84;4994977;28;20405;-49
2022/11/21 08:43:00;;;;;;;16.48;10.02;;;;;;;5.13;100.00;100226.81;4996317;28;20046;-48
2022/11/21 08:45:27;;;;;;;15.63;9.27;;;;;;;5.12;100.00;100219.81;4979111;28;20042;-48
2022/11/21 08:47:55;;;;;;;15.15;9.13;;;;;;;5.13;100.00;100217.91;4989021;28;20042;-47
2022/11/21 08:50:23;;;;;;;16.52;8.02;;;;;;;5.16;100.00;100213.91;5009778;28;20038;-51
2022/11/21 08:52:51;;;;;;;20.88;9.50;;;;;;;5.27;100.00;100210.28;4998710;28;20108;-49
2022/11/21 08:55:19;;;;;;;15.27;8.63;;;;;;;5.29;100.00;100213.53;5015989;28;20042;-48
2022/11/21 08:57:46;;;;;;;14.55;7.20;;;;;;;5.32;100.00;100218.47;5016181;28;20042;-50
2022/11/21 09:00:15;;;;;;;14.23;7.25;;;;;;;5.37;100.00;100221.25;5011160;28;20105;-52
2022/11/21 09:02:43;;;;;;;14.52;6.45;;;;;;;5.39;100.00;100218.28;4993010;28;20057;-51
2022/11/21 09:05:11;;;;;;;18.77;7.65;;;;;;;5.53;100.00;100209.59;4968618;28;20049;-49
2022/11/21 09:07:40;;;;;;;15.45;7.28;;;;;;;5.57;100.00;100217.19;5017324;28;20050;-52
2022/11/21 09:10:08;;;;;;;13.70;6.45;;;;;;;5.52;100.00;100205.22;4999755;28;20046;-53
2022/11/21 09:12:36;;;;;;;15.15;7.25;;;;;;;5.49;100.00;100208.44;5011116;28;20049;-53
2022/11/21 09:18:02;;;;;;;13.50;6.70;;;;;;;5.48;100.00;100189.75;5012285;28;20041;-52
2022/11/21 09:20:37;;;;;;;13.35;6.78;;;;;;;5.49;100.00;100192.22;5005288;28;20053;-51
2022/11/21 09:23:14;;;;;;;10.93;5.40;;;;;;;5.52;100.00;100188.22;5000749;28;20105;-51
2022/11/21 09:25:42;;;;;;;16.58;6.40;;;;;;;5.51;100.00;100181.19;5015737;28;20046;-51
2022/11/21 09:28:11;;;;;;;14.63;5.82;;;;;;;5.55;100.00;100190.41;5015098;28;20053;-53
2022/11/21 09:30:40;;;;;;;15.68;6.00;;;;;;;5.65;100.00;100189.72;5015473;28;20492;-54
2022/11/21 09:33:13;;;;;;;13.90;6.20;;;;;;;5.64;100.00;100190.78;5002567;28;20042;-49
2022/11/21 09:35:41;;;;;;;11.70;5.28;;;;;;;5.61;100.00;100185.91;4988992;28;20046;-52
2022/11/21 09:38:09;;;;;;;12.38;5.43;;;;;;;5.57;100.00;100182.06;5011299;28;20045;-50
2022/11/21 09:40:40;;;;;;;12.65;5.15;;;;;;;5.55;100.00;100183.09;5015010;28;20041;-51
2022/11/21 09:43:17;;;;;;;13.18;5.22;;;;;;;5.54;100.00;100178.78;4987934;28;20539;-52
2022/11/21 09:45:46;;;;;;;14.35;6.03;;;;;;;5.65;100.00;100178.91;4997902;28;20038;-53
2022/11/21 09:48:30;;;;;;;9.65;4.63;;;;;;;5.64;100.00;100177.28;4997477;28;20045;-51
2022/11/21 09:51:04;;;;;;;15.00;6.30;;;;;;;5.81;100.00;100178.03;4997407;28;20048;-53
2022/11/21 09:53:37;;;;;;;12.43;5.43;;;;;;;5.79;100.00;100176.66;4994529;28;20046;-48
2022/11/21 09:56:14;;;;;;;13.77;5.10;;;;;;;5.80;100.00;100172.88;4997914;28;20068;-51
2022/11/21 09:58:50;;;;;;;17.67;5.97;;;;;;;6.00;100.00;100161.50;4994785;28;20401;-50
2022/11/21 10:01:18;;;;;;;12.82;5.40;;;;;;;6.02;100.00;100159.38;4978019;28;20048;-52
2022/11/21 10:03:47;;;;;;;13.20;5.70;;;;;;;6.19;100.00;100162.78;4961988;28;20424;-51
2022/11/21 10:06:35;;;;;;;11.55;5.35;;;;;;;6.16;100.00;100160.63;4967366;28;20101;-50
2022/11/21 10:09:18;;;;;;;12.77;5.22;;;;;;;6.14;100.00;100157.34;4974302;28;20076;-51
2022/11/21 10:14:55;;;;;;;12.93;5.28;;;;;;;6.05;100.00;100134.53;4981678;28;20047;-50
2022/11/21 10:17:49;;;;;;;17.00;7.07;;;;;;;6.23;100.00;100136.88;4972609;28;20533;-51
2022/11/21 10:20:29;;;;;;;15.63;5.30;;;;;;;6.33;100.00;100136.97;4976690;28;20130;-51
2022/11/21 10:23:20;;;;;;;12.50;4.60;;;;;;;6.33;100.00;100139.66;4958530;28;20054;-51
2022/11/21 10:26:18;;;;;;;13.98;5.03;;;;;;;6.31;100.00;100128.28;4975045;28;20049;-52
2022/11/21 10:28:48;;;;;;;15.85;5.47;;;;;;;6.45;100.00;100120.56;4980749;28;20433;-51
2022/11/21 10:31:17;;;;;;;15.00;5.43;;;;;;;6.53;100.00;100113.84;4985530;28;20039;-49
2022/11/21 10:33:45;;;;;;;12.88;4.38;;;;;;;6.56;100.00;100103.31;4975746;28;20070;-49
2022/11/21 10:36:29;;;;;;;8.10;4.20;;;;;;;6.36;100.00;100108.56;4973721;28;20094;-49
2022/11/21 10:39:10;;;;;;;11.57;4.82;;;;;;;6.33;100.00;100115.31;4977652;28;20081;-50
2022/11/21 10:41:48;;;;;;;13.88;5.10;;;;;;;6.59;100.00;100112.81;4986213;28;20420;-52
2022/11/21 10:47:26;;;;;;;8.63;4.22;;;;;;;6.36;100.00;100103.97;4988667;28;20049;-52
2022/11/21 10:50:07;;;;;;;12.75;4.82;;;;;;;6.39;100.00;100098.03;4995152;28;20054;-51
2022/11/21 10:52:39;;;;;;;9.82;4.10;;;;;;;6.26;100.00;100098.47;4995017;28;20046;-50
2022/11/21 10:55:10;;;;;;;14.10;4.45;;;;;;;6.12;100.00;100098.09;4980582;28;20038;-54
2022/11/21 10:57:40;;;;;;;9.73;4.15;;;;;;;6.05;100.00;100088.56;4944876;28;20085;-51
2022/11/21 11:00:16;;;;;;;12.95;4.72;;;;;;;6.01;100.00;100080.13;4989951;28;20034;-51
2022/11/21 11:03:03;;;;;;;12.30;4.80;;;;;;;6.05;100.00;100081.25;4982471;28;20042;-52
2022/11/21 11:05:36;;;;;;;10.73;3.88;;;;;;;6.05;100.00;100073.13;4981492;28;20038;-51
2022/11/21 11:08:07;;;;;;;14.63;4.57;;;;;;;6.04;100.00;100071.50;4973611;28;20049;-50
2022/11/21 11:10:59;;;;;;;9.35;4.32;;;;;;;6.05;100.00;100059.63;4979696;28;20054;-51
2022/11/21 11:13:35;;;;;;;13.70;5.22;;;;;;;6.09;100.00;100065.34;4991997;28;20042;-50
2022/11/21 11:16:19;;;;;;;10.88;5.00;;;;;;;6.14;100.00;100063.47;4970956;28;20061;-53
2022/11/21 11:18:54;;;;;;;12.35;4.20;;;;;;;6.25;100.00;100064.38;4974948;28;20038;-51
2022/11/21 11:21:30;;;;;;;10.32;4.20;;;;;;;6.28;100.00;100061.19;4956636;28;20162;-51
2022/11/21 11:24:10;;;;;;;11.55;4.32;;;;;;;6.40;100.00;100044.75;4975545;28;20046;-50
2022/11/21 11:26:47;;;;;;;9.63;4.03;;;;;;;6.50;100.00;100041.31;4993898;28;20485;-51
2022/11/21 11:29:18;;;;;;;13.50;5.88;;;;;;;6.57;100.00;100039.19;4294924;28;10000558;-51
2022/11/21 11:31:59;;;;;;;14.18;5.00;;;;;;;6.50;100.00;100031.31;4977941;28;20054;-55
2022/11/21 11:34:40;;;;;;;9.50;4.25;;;;;;;6.67;100.00;100039.25;4971060;28;20076;-51
2022/11/21 11:37:42;;;;;;;10.65;4.78;;;;;;;6.73;100.00;100026.56;4978748;28;20042;-51
2022/11/21 11:40:38;;;;;;;10.18;4.20;;;;;;;6.67;100.00;100023.00;4978291;28;20416;-49